createdAt,value
2022-09-24T00:01:40.875Z,11.62
2022-09-24T00:04:12.580Z,11.52
2022-09-24T00:06:48.496Z,11.54
2022-09-24T00:09:19.704Z,11.49
2022-09-24T00:11:46.876Z,11.38
2022-09-24T00:14:14.060Z,11.35
2022-09-24T00:16:42.918Z,11.33
2022-09-24T00:19:11.097Z,11.27
2022-09-24T00:21:39.377Z,11.24
2022-09-24T00:24:37.137Z,11.23
2022-09-24T00:27:05.960Z,11.23
2022-09-24T00:29:34.521Z,11.15
2022-09-24T00:32:02.982Z,11.05
2022-09-24T00:34:30.236Z,11.06
2022-09-24T00:36:57.500Z,11.03
2022-09-24T00:39:24.596Z,11.03
2022-09-24T00:41:51.637Z,11.02
2022-09-24T00:44:41.090Z,10.95
2022-09-24T00:47:27.640Z,10.96
2022-09-24T00:50:24.177Z,10.92
2022-09-24T00:52:55.657Z,10.86
2022-09-24T00:55:24.916Z,10.86
2022-09-24T00:57:57.207Z,10.90
2022-09-24T01:00:24.337Z,10.87
2022-09-24T01:02:56.972Z,10.90
2022-09-24T01:05:23.943Z,10.85
2022-09-24T01:07:50.886Z,10.82
2022-09-24T01:10:42.356Z,10.78
2022-09-24T01:13:32.756Z,10.76
2022-09-24T01:16:25.965Z,10.71
2022-09-24T01:19:11.625Z,10.70
2022-09-24T01:21:55.556Z,10.74
2022-09-24T01:24:56.542Z,10.77
2022-09-24T01:27:57.597Z,10.81
2022-09-24T01:30:25.765Z,10.83
2022-09-24T01:32:54.217Z,10.83
2022-09-24T01:35:38.619Z,10.82
2022-09-24T01:38:15.398Z,10.79
2022-09-24T01:40:44.069Z,10.77
2022-09-24T01:43:13.477Z,10.78
2022-09-24T01:45:40.897Z,10.80
2022-09-24T01:48:08.457Z,10.76
2022-09-24T01:50:44.396Z,10.75
2022-09-24T01:53:36.077Z,10.73
2022-09-24T01:56:11.817Z,10.74
2022-09-24T01:59:10.419Z,10.73
2022-09-24T02:01:44.772Z,10.70
2022-09-24T02:04:19.826Z,10.67
2022-09-24T02:07:02.096Z,10.64
2022-09-24T02:09:35.266Z,10.58
2022-09-24T02:12:11.957Z,10.54
2022-09-24T02:14:49.158Z,10.48
2022-09-24T02:17:16.637Z,10.45
2022-09-24T02:19:44.964Z,10.39
2022-09-24T02:22:14.588Z,10.34
2022-09-24T02:24:51.456Z,10.27
2022-09-24T02:27:19.699Z,10.26
2022-09-24T02:29:46.780Z,10.26
2022-09-24T02:32:18.357Z,10.24
2022-09-24T02:34:54.336Z,10.21
2022-09-24T02:37:23.997Z,10.27
2022-09-24T02:39:51.604Z,10.31
2022-09-24T02:42:20.328Z,10.30
2022-09-24T02:44:47.757Z,10.28
2022-09-24T02:47:15.246Z,10.26
2022-09-24T02:49:42.323Z,10.27
2022-09-24T02:52:10.516Z,10.25
2022-09-24T02:54:38.143Z,10.22
2022-09-24T02:57:05.316Z,10.21
2022-09-24T02:59:32.556Z,10.21
2022-09-24T03:01:59.702Z,10.24
2022-09-24T03:04:26.877Z,10.26
2022-09-24T03:06:53.895Z,10.30
2022-09-24T03:09:20.858Z,10.27
2022-09-24T03:11:47.976Z,10.20
2022-09-24T03:14:14.917Z,10.19
2022-09-24T03:16:41.945Z,10.14
2022-09-24T03:19:09.049Z,10.09
2022-09-24T03:21:36.278Z,10.10
2022-09-24T03:24:04.340Z,10.12
2022-09-24T03:26:32.118Z,10.15
2022-09-24T03:28:59.076Z,10.13
2022-09-24T03:31:26.210Z,10.10
2022-09-24T03:33:53.416Z,10.09
2022-09-24T03:36:23.338Z,10.08
2022-09-24T03:38:55.541Z,10.05
2022-09-24T03:41:24.464Z,10.05
2022-09-24T03:43:51.517Z,10.09
2022-09-24T03:46:19.587Z,10.11
2022-09-24T03:48:47.702Z,10.15
2022-09-24T03:51:21.279Z,10.17
2022-09-24T03:53:48.896Z,10.12
2022-09-24T03:56:16.388Z,10.08
2022-09-24T03:58:47.775Z,10.09
2022-09-24T04:01:21.919Z,10.05
2022-09-24T04:03:50.136Z,9.98
2022-09-24T04:06:22.011Z,10.00
2022-09-24T04:08:52.097Z,10.00
2022-09-24T04:11:19.139Z,9.96
2022-09-24T04:13:46.158Z,9.97
2022-09-24T04:16:13.229Z,9.90
2022-09-24T04:18:40.308Z,9.89
2022-09-24T04:21:08.397Z,9.89
2022-09-24T04:23:35.556Z,9.86
2022-09-24T04:26:02.640Z,9.86
2022-09-24T04:28:31.016Z,9.85
2022-09-24T04:30:58.199Z,9.80
2022-09-24T04:33:25.396Z,9.84
2022-09-24T04:35:52.378Z,9.87
2022-09-24T04:38:21.583Z,9.91
2022-09-24T04:40:49.374Z,9.97
2022-09-24T04:43:19.334Z,9.95
2022-09-24T04:45:47.138Z,10.01
2022-09-24T04:48:14.436Z,10.02
2022-09-24T04:50:45.898Z,10.07
2022-09-24T04:53:13.751Z,10.07
2022-09-24T04:55:41.897Z,10.04
2022-09-24T04:58:09.797Z,9.99
2022-09-24T05:00:37.137Z,9.93
2022-09-24T05:03:04.890Z,9.90
2022-09-24T05:05:33.505Z,9.87
2022-09-24T05:08:01.790Z,9.91
2022-09-24T05:10:29.918Z,9.89
2022-09-24T05:12:57.025Z,9.90
2022-09-24T05:15:27.343Z,9.95
2022-09-24T05:17:54.782Z,9.99
2022-09-24T05:20:22.717Z,10.04
2022-09-24T05:22:50.694Z,10.10
2022-09-24T05:25:20.455Z,10.21
2022-09-24T05:27:54.413Z,10.29
2022-09-24T05:30:24.966Z,10.36
2022-09-24T05:32:55.131Z,10.44
2022-09-24T05:35:24.176Z,10.52
2022-09-24T05:37:53.983Z,10.59
2022-09-24T05:40:40.237Z,10.67
2022-09-24T05:43:07.433Z,10.64
2022-09-24T05:45:34.422Z,10.61
2022-09-24T05:48:01.711Z,10.82
2022-09-24T05:50:28.711Z,10.88
2022-09-24T05:52:55.975Z,10.97
2022-09-24T05:55:23.000Z,11.03
2022-09-24T05:57:50.698Z,11.08
2022-09-24T06:00:17.598Z,11.14
2022-09-24T06:02:44.816Z,11.20
2022-09-24T06:05:12.288Z,11.22
2022-09-24T06:07:39.757Z,11.27
2022-09-24T06:10:09.805Z,11.36
2022-09-24T06:12:36.959Z,11.40
2022-09-24T06:15:04.583Z,11.44
2022-09-24T06:17:32.679Z,11.40
2022-09-24T06:19:59.691Z,11.53
2022-09-24T06:22:29.027Z,11.61
2022-09-24T06:24:56.312Z,11.69
2022-09-24T06:27:23.382Z,11.84
2022-09-24T06:29:50.390Z,11.94
2022-09-24T06:32:18.436Z,12.06
2022-09-24T06:34:45.630Z,12.24
2022-09-24T06:37:12.577Z,12.30
2022-09-24T06:39:39.577Z,12.41
2022-09-24T06:42:07.318Z,12.51
2022-09-24T06:44:35.275Z,12.52
2022-09-24T06:47:02.365Z,12.60
2022-09-24T06:49:33.739Z,12.72
2022-09-24T06:52:01.350Z,12.82
2022-09-24T06:54:28.288Z,12.91
2022-09-24T06:56:55.198Z,12.97
2022-09-24T06:59:22.328Z,13.06
2022-09-24T07:01:49.370Z,13.15
2022-09-24T07:04:16.430Z,13.31
2022-09-24T07:07:01.907Z,13.42
2022-09-24T07:09:28.928Z,13.52
2022-09-24T07:11:58.990Z,13.63
2022-09-24T07:14:25.908Z,13.73
2022-09-24T07:16:54.293Z,13.77
2022-09-24T07:19:21.328Z,13.87
2022-09-24T07:21:48.419Z,13.97
2022-09-24T07:24:15.399Z,14.07
2022-09-24T07:26:42.471Z,14.17
2022-09-24T07:29:09.723Z,14.21
2022-09-24T07:31:36.847Z,14.33
2022-09-24T07:34:06.512Z,14.44
2022-09-24T07:36:33.769Z,14.56
2022-09-24T07:39:01.510Z,14.63
2022-09-24T07:41:30.190Z,14.57
2022-09-24T07:43:57.288Z,14.84
2022-09-24T07:46:24.978Z,14.91
2022-09-24T07:48:58.350Z,15.00
2022-09-24T07:51:28.628Z,15.14
2022-09-24T07:53:56.641Z,15.30
2022-09-24T07:56:25.148Z,15.28
2022-09-24T07:58:53.413Z,15.43
2022-09-24T08:01:20.411Z,15.56
2022-09-24T08:03:47.659Z,15.66
2022-09-24T08:06:14.903Z,15.79
2022-09-24T08:08:41.831Z,15.91
2022-09-24T08:11:12.492Z,15.98
2022-09-24T08:13:39.909Z,16.15
2022-09-24T08:16:07.148Z,16.09
2022-09-24T08:18:34.409Z,16.30
2022-09-24T08:21:12.122Z,16.42
2022-09-24T08:23:42.968Z,16.48
2022-09-24T08:26:14.008Z,16.47
2022-09-24T08:28:44.591Z,16.79
2022-09-24T08:31:13.296Z,16.68
2022-09-24T08:33:40.451Z,16.94
2022-09-24T08:36:10.148Z,16.97
2022-09-24T08:38:37.219Z,17.21
2022-09-24T08:41:13.416Z,17.03
2022-09-24T08:43:46.501Z,17.37
2022-09-24T08:46:47.185Z,17.64
2022-09-24T08:49:24.493Z,17.74
2022-09-24T08:52:03.608Z,17.95
2022-09-24T08:54:35.148Z,18.17
2022-09-24T08:57:12.119Z,18.38
2022-09-24T08:59:44.207Z,18.55
2022-09-24T09:02:38.957Z,18.66
2022-09-24T09:05:24.208Z,18.80
2022-09-24T09:08:03.216Z,18.95
2022-09-24T09:10:36.196Z,19.09
2022-09-24T09:13:11.329Z,19.23
2022-09-24T09:15:44.095Z,19.31
2022-09-24T09:18:20.831Z,19.39
2022-09-24T09:20:49.909Z,19.49
2022-09-24T09:23:33.488Z,19.52
2022-09-24T09:26:00.694Z,19.57
2022-09-24T09:28:28.328Z,19.58
2022-09-24T09:31:20.327Z,19.51
2022-09-24T09:34:23.968Z,19.55
2022-09-24T09:37:09.350Z,19.51
2022-09-24T09:39:53.113Z,19.47
2022-09-24T09:42:20.299Z,19.43
2022-09-24T09:44:47.288Z,19.30
2022-09-24T09:47:20.557Z,19.23
2022-09-24T09:49:51.738Z,19.31
2022-09-24T09:52:21.330Z,19.26
2022-09-24T09:54:49.936Z,19.29
2022-09-24T09:57:20.830Z,19.23
2022-09-24T09:59:50.573Z,19.32
2022-09-24T10:02:36.572Z,19.38
2022-09-24T10:05:05.722Z,19.36
2022-09-24T10:07:32.940Z,19.44
2022-09-24T10:10:24.003Z,19.68
2022-09-24T10:13:09.065Z,19.64
2022-09-24T10:15:49.622Z,20.00
2022-09-24T10:18:17.575Z,20.28
2022-09-24T10:20:48.522Z,20.50
2022-09-24T10:23:22.609Z,20.68
2022-09-24T10:26:00.861Z,20.97
2022-09-24T10:28:47.829Z,21.14
2022-09-24T10:31:19.491Z,21.40
2022-09-24T10:33:50.449Z,21.53
2022-09-24T10:36:23.831Z,21.73
2022-09-24T10:39:21.511Z,22.00
2022-09-24T10:41:52.209Z,22.05
2022-09-24T10:44:21.308Z,22.13
2022-09-24T10:47:17.168Z,22.11
2022-09-24T10:50:07.568Z,22.36
2022-09-24T10:52:51.698Z,22.56
2022-09-24T10:55:41.169Z,22.60
2022-09-24T10:58:45.868Z,22.94
2022-09-24T11:13:31.688Z,23.24
2022-09-24T11:16:25.407Z,23.22
2022-09-24T11:19:17.279Z,23.38
2022-09-24T11:22:03.408Z,23.51
2022-09-24T11:24:48.768Z,23.90
2022-09-24T11:27:39.146Z,24.02
2022-09-24T11:30:18.249Z,24.50
2022-09-24T11:33:09.908Z,24.90
2022-09-24T11:35:56.839Z,25.09
2022-09-24T11:38:27.570Z,25.09
2022-09-24T11:41:03.730Z,25.07
2022-09-24T11:43:46.269Z,24.95
2022-09-24T11:46:19.272Z,24.91
2022-09-24T11:48:46.189Z,24.98
2022-09-24T11:51:51.548Z,24.86
2022-09-24T11:54:31.198Z,24.79
2022-09-24T11:57:28.129Z,24.79
2022-09-24T12:00:00.988Z,24.85
2022-09-24T12:02:36.028Z,24.92
2022-09-24T12:05:14.738Z,24.94
2022-09-24T12:08:05.656Z,24.95
2022-09-24T12:10:39.938Z,24.77
2022-09-24T12:13:32.178Z,24.74
2022-09-24T12:16:05.031Z,24.74
2022-09-24T12:18:51.608Z,24.82
2022-09-24T12:21:26.949Z,24.78
2022-09-24T12:24:02.631Z,24.79
2022-09-24T12:26:31.508Z,24.72
2022-09-24T12:29:35.289Z,24.71
2022-09-24T12:32:36.488Z,24.63
2022-09-24T12:35:19.558Z,24.61
2022-09-24T12:37:49.059Z,24.41
2022-09-24T12:40:54.672Z,24.56
2022-09-24T12:43:32.508Z,24.61
2022-09-24T12:46:03.123Z,24.70
2022-09-24T12:48:35.969Z,24.83
2022-09-24T12:51:05.073Z,24.75
2022-09-24T12:53:38.689Z,25.07
2022-09-24T12:56:07.556Z,25.09
2022-09-24T12:58:43.862Z,25.18
2022-09-24T13:01:27.055Z,25.45
2022-09-24T13:04:15.820Z,25.70
2022-09-24T13:06:48.113Z,25.77
2022-09-24T13:09:30.068Z,25.80
2022-09-24T13:12:15.300Z,25.63
2022-09-24T13:14:55.448Z,26.04
2022-09-24T13:17:23.079Z,26.17
2022-09-24T13:19:57.508Z,26.18
2022-09-24T13:22:30.564Z,26.31
2022-09-24T13:25:20.968Z,26.42
2022-09-24T13:28:16.209Z,26.44
2022-09-24T13:30:46.888Z,26.39
2022-09-24T13:33:31.388Z,26.35
2022-09-24T13:35:58.627Z,26.29
2022-09-24T13:38:31.630Z,26.21
2022-09-24T13:41:07.868Z,26.17
2022-09-24T13:43:44.189Z,26.31
2022-09-24T13:46:16.979Z,26.42
2022-09-24T13:48:53.868Z,26.62
2022-09-24T13:51:28.169Z,26.75
2022-09-24T13:54:04.268Z,27.01
2022-09-24T13:56:31.559Z,27.22
2022-09-24T13:59:12.971Z,27.37
2022-09-24T14:01:42.548Z,27.44
2022-09-24T14:04:21.056Z,27.44
2022-09-24T14:06:51.879Z,27.22
2022-09-24T14:09:36.670Z,26.99
2022-09-24T14:12:23.929Z,26.57
2022-09-24T14:14:58.467Z,26.17
2022-09-24T14:17:25.901Z,25.87
2022-09-24T14:19:57.407Z,25.66
2022-09-24T14:22:39.328Z,25.35
2022-09-24T14:25:16.019Z,24.99
2022-09-24T14:27:47.148Z,24.66
2022-09-24T14:30:23.430Z,24.41
2022-09-24T14:32:57.650Z,24.17
2022-09-24T14:35:35.892Z,23.92
2022-09-24T14:38:32.628Z,23.65
2022-09-24T14:41:16.190Z,23.27
2022-09-24T14:44:09.152Z,23.06
2022-09-24T14:46:49.922Z,22.79
2022-09-24T14:49:43.338Z,22.62
2022-09-24T14:52:31.228Z,22.37
2022-09-24T14:55:19.570Z,22.30
2022-09-24T14:57:50.207Z,22.19
2022-09-24T15:00:28.625Z,22.10
2022-09-24T15:03:04.329Z,22.00
2022-09-24T15:05:32.047Z,21.94
2022-09-24T15:08:24.279Z,21.83
2022-09-24T15:11:21.518Z,21.70
2022-09-24T15:13:59.089Z,21.69
2022-09-24T15:16:32.188Z,21.62
2022-09-24T15:19:23.329Z,21.56
2022-09-24T15:21:52.660Z,21.44
2022-09-24T15:24:20.478Z,21.35
2022-09-24T15:27:00.048Z,21.25
2022-09-24T15:29:27.388Z,21.22
2022-09-24T15:31:56.668Z,21.12
2022-09-24T15:34:24.049Z,21.07
2022-09-24T15:36:55.590Z,21.04
2022-09-24T15:39:25.257Z,20.99
2022-09-24T15:41:52.321Z,20.93
2022-09-24T15:44:23.218Z,20.92
2022-09-24T15:46:51.555Z,20.87
2022-09-24T15:49:22.570Z,20.83
2022-09-24T15:51:57.509Z,20.78
2022-09-24T15:54:25.040Z,20.74
2022-09-24T15:56:52.778Z,20.67
2022-09-24T15:59:22.217Z,20.63
2022-09-24T16:01:52.081Z,20.55
2022-09-24T16:04:19.050Z,20.50
2022-09-24T16:06:46.173Z,20.46
2022-09-24T16:09:13.117Z,20.40
2022-09-24T16:11:40.068Z,20.35
2022-09-24T16:14:07.711Z,20.29
2022-09-24T16:16:34.677Z,20.24
2022-09-24T16:19:01.632Z,20.15
2022-09-24T16:21:28.676Z,20.08
2022-09-24T16:23:56.589Z,20.03
2022-09-24T16:26:23.890Z,19.98
2022-09-24T16:28:51.831Z,19.92
2022-09-24T16:31:20.181Z,19.86
2022-09-24T16:33:47.187Z,19.78
2022-09-24T16:36:14.369Z,19.73
2022-09-24T16:38:41.355Z,19.67
2022-09-24T16:41:08.828Z,19.61
2022-09-24T16:43:35.770Z,19.56
2022-09-24T16:46:04.756Z,19.49
2022-09-24T16:48:32.628Z,19.45
2022-09-24T16:51:03.628Z,19.35
2022-09-24T16:53:30.728Z,19.33
2022-09-24T16:56:13.509Z,19.31
2022-09-24T16:58:41.988Z,19.22
2022-09-24T17:01:11.955Z,19.19
2022-09-24T17:03:39.569Z,19.12
2022-09-24T17:06:07.850Z,19.08
2022-09-24T17:08:55.010Z,19.02
2022-09-24T17:11:22.866Z,18.95
2022-09-24T17:13:50.409Z,18.89
2022-09-24T17:16:19.035Z,18.83
2022-09-24T17:18:47.229Z,18.76
2022-09-24T17:21:14.840Z,18.69
2022-09-24T17:23:41.849Z,18.64
2022-09-24T17:26:14.548Z,18.59
2022-09-24T17:28:44.496Z,18.54
2022-09-24T17:31:14.549Z,18.48
2022-09-24T17:33:45.492Z,18.43
2022-09-24T17:36:14.382Z,18.39
2022-09-24T17:38:42.256Z,18.35
2022-09-24T17:41:12.130Z,18.29
2022-09-24T17:43:40.489Z,18.27
2022-09-24T17:46:16.153Z,18.23
2022-09-24T17:48:45.485Z,18.19
2022-09-24T17:51:22.288Z,18.13
2022-09-24T17:53:51.248Z,18.10
2022-09-24T17:56:18.671Z,18.06
2022-09-24T17:58:49.858Z,18.00
2022-09-24T18:01:19.996Z,17.95
2022-09-24T18:03:48.998Z,17.89
2022-09-24T18:06:16.018Z,17.83
2022-09-24T18:08:44.608Z,17.77
2022-09-24T18:11:17.789Z,17.70
2022-09-24T18:13:45.689Z,17.68
2022-09-24T18:16:17.923Z,17.58
2022-09-24T18:18:45.430Z,17.55
2022-09-24T18:21:13.850Z,17.46
2022-09-24T18:23:41.430Z,17.43
2022-09-24T18:26:12.469Z,17.36
2022-09-24T18:28:48.108Z,17.37
2022-09-24T18:31:16.574Z,17.27
2022-09-24T18:33:45.332Z,17.21
2022-09-24T18:36:14.450Z,17.25
2022-09-24T18:38:41.668Z,17.22
2022-09-24T18:41:11.388Z,17.21
2022-09-24T18:43:38.409Z,17.21
2022-09-24T18:46:10.890Z,17.18
2022-09-24T18:48:39.248Z,17.15
2022-09-24T18:51:06.748Z,17.10
2022-09-24T18:53:35.457Z,17.07
2022-09-24T18:56:07.349Z,17.03
2022-09-24T18:58:34.908Z,17.04
2022-09-24T19:01:03.924Z,16.85
2022-09-24T19:03:31.697Z,16.89
2022-09-24T19:06:04.868Z,16.83
2022-09-24T19:08:32.471Z,16.82
2022-09-24T19:11:07.833Z,16.75
2022-09-24T19:13:37.269Z,16.71
2022-09-24T19:16:10.034Z,16.69
2022-09-24T19:18:37.509Z,16.64
2022-09-24T19:21:07.132Z,16.60
2022-09-24T19:23:41.778Z,16.57
2022-09-24T19:26:10.728Z,16.52
2022-09-24T19:28:41.069Z,16.47
2022-09-24T19:31:38.866Z,16.45
2022-09-24T19:34:07.329Z,16.40
2022-09-24T19:36:43.731Z,16.33
2022-09-24T19:39:14.511Z,16.30
2022-09-24T19:41:42.128Z,16.22
2022-09-24T19:44:09.725Z,16.07
2022-09-24T19:46:38.679Z,16.08
2022-09-24T19:49:06.471Z,15.98
2022-09-24T19:51:35.311Z,15.93
2022-09-24T19:54:06.814Z,15.89
2022-09-24T19:56:34.748Z,15.84
2022-09-24T19:59:02.469Z,15.78
2022-09-24T20:01:32.147Z,15.76
2022-09-24T20:04:02.681Z,15.72
2022-09-24T20:06:33.902Z,15.67
2022-09-24T20:09:04.001Z,15.65
2022-09-24T20:11:33.117Z,15.62
2022-09-24T20:14:01.603Z,15.56
2022-09-24T20:16:33.378Z,15.56
2022-09-24T20:19:05.171Z,15.55
2022-09-24T20:21:37.199Z,15.53
2022-09-24T20:24:07.828Z,15.52
2022-09-24T20:26:54.328Z,15.52
2022-09-24T20:29:23.166Z,15.52
2022-09-24T20:31:53.131Z,15.51
2022-09-24T20:34:22.772Z,15.51
2022-09-24T20:36:49.786Z,15.49
2022-09-24T20:39:17.746Z,15.51
2022-09-24T20:41:45.668Z,15.46
2022-09-24T20:44:13.309Z,15.48
2022-09-24T20:46:40.484Z,15.48
2022-09-24T20:49:07.508Z,15.47
2022-09-24T20:51:34.397Z,15.47
2022-09-24T20:54:02.134Z,15.45
2022-09-24T20:56:30.942Z,15.40
2022-09-24T20:58:58.809Z,15.35
2022-09-24T21:01:25.941Z,15.32
2022-09-24T21:03:53.468Z,15.31
2022-09-24T21:06:23.723Z,15.23
2022-09-24T21:08:51.388Z,15.15
2022-09-24T21:11:21.229Z,15.04
2022-09-24T21:13:51.682Z,14.96
2022-09-24T21:16:29.166Z,14.86
2022-09-24T21:18:56.328Z,14.90
2022-09-24T21:21:26.498Z,14.89
2022-09-24T21:23:55.140Z,14.86
2022-09-24T21:26:40.779Z,14.83
2022-09-24T21:29:14.489Z,14.80
2022-09-24T21:31:42.241Z,14.77
2022-09-24T21:34:09.288Z,14.75
2022-09-24T21:36:43.622Z,14.77
2022-09-24T21:39:26.989Z,14.74
2022-09-24T21:41:55.568Z,14.75
2022-09-24T21:44:22.628Z,14.69
2022-09-24T21:46:52.743Z,14.69
2022-09-24T21:49:20.772Z,14.69
2022-09-24T21:51:47.687Z,14.69
2022-09-24T21:54:17.394Z,14.70
2022-09-24T21:56:45.609Z,14.72
2022-09-24T21:59:31.238Z,14.72
2022-09-24T22:01:58.371Z,14.76
2022-09-24T22:04:25.359Z,14.69
2022-09-24T22:06:52.729Z,14.51
2022-09-24T22:09:20.408Z,14.42
2022-09-24T22:11:47.490Z,14.39
2022-09-24T22:14:14.774Z,14.32
2022-09-24T22:16:41.845Z,14.35
2022-09-24T22:19:12.378Z,14.37
2022-09-24T22:21:40.709Z,14.36
2022-09-24T22:24:07.606Z,14.36
2022-09-24T22:26:34.598Z,14.26
2022-09-24T22:29:02.248Z,14.26
2022-09-24T22:31:29.228Z,14.13
2022-09-24T22:34:15.196Z,14.13
2022-09-24T22:36:42.498Z,14.11
2022-09-24T22:39:09.789Z,14.11
2022-09-24T22:41:40.013Z,14.06
2022-09-24T22:44:07.449Z,14.04
2022-09-24T22:46:36.550Z,14.07
2022-09-24T22:49:05.600Z,14.03
2022-09-24T22:51:33.961Z,14.02
2022-09-24T22:54:01.414Z,14.04
2022-09-24T22:56:30.185Z,14.04
2022-09-24T22:58:59.689Z,14.03
2022-09-24T23:01:30.456Z,14.06
2022-09-24T23:03:58.649Z,14.06
2022-09-24T23:06:26.329Z,14.04
2022-09-24T23:08:55.008Z,14.03
2022-09-24T23:11:26.739Z,14.05
2022-09-24T23:13:57.061Z,13.99
2022-09-24T23:16:27.326Z,14.02
2022-09-24T23:18:56.869Z,13.98
2022-09-24T23:21:27.008Z,13.99
2022-09-24T23:23:56.248Z,13.99
2022-09-24T23:26:24.741Z,13.99
2022-09-24T23:28:53.208Z,14.02
2022-09-24T23:31:27.608Z,14.00
2022-09-24T23:33:56.429Z,14.00
2022-09-24T23:36:24.289Z,14.00
2022-09-24T23:38:51.588Z,14.02
2022-09-24T23:41:18.528Z,14.02
2022-09-24T23:43:46.355Z,14.07
2022-09-24T23:46:13.877Z,14.06
2022-09-24T23:48:41.974Z,14.04
2022-09-24T23:51:10.350Z,13.94
2022-09-24T23:53:38.309Z,13.90
2022-09-24T23:56:06.756Z,13.80
2022-09-24T23:58:34.184Z,13.83
